Aérodrome :
LOGIN :

S'inscrire | Disclaimer

   EN    FR    IT 

 










Légende :    VFR   VFR Marginal   IFR   IFR Intensif   IFR Très Intensif
Visi : 
Plafond : 
>= 8 km
>= 3000ft
5 à 8 km
1000 à 3000 ft
1500m à 5 km
500 à 1000 ft
800 à 1500m
200 à 500 ft
< 800m
< 200 ft
Symboles :   Orages  Brouillard  Fortes neiges  Fortes précipitations  Vent > 20 kt
SIGMETs :   Divers  Orages  Givrage  Turbulence  Onde Orograph.  Cendres Volcan.







- Altitude de l'aérodrome : 157 ft
- Code IATA : LIL
- Voir les cartes d'approche


LFQQ - Lille Lesquin

DERNIER METAR :
  • 240700Z AUTO 24004KT 200V290 CAVOK 13/09 Q1016 NOSIG

METARs EXPIRÉS :
  • 240630Z AUTO 26007KT CAVOK 13/08 Q1016 NOSIG
  • 240600Z AUTO 22004KT CAVOK 13/08 Q1016 NOSIG
  • 240530Z AUTO 23004KT CAVOK 13/06 Q1016 NOSIG
  • 240500Z AUTO 23003KT CAVOK 13/07 Q1016 NOSIG
  • 240430Z AUTO 22003KT CAVOK 13/08 Q1016 NOSIG

TAF TAF LFQQ
Valide du 24 à 06h jusqu'au 25 à 12h UTC


240500Z 2406/2512 27005KT CAVOK
BECMG 2412/2414 34010KT
BECMG 2421/2424 VRB02KT
BECMG 2509/2512 30010KT
ATIS : +33 3 20 16 19 54
Pas de NOTAMs connus pour ce terrain.



MET'MAP, la Météo Aéronautique d'un coup d'oeil ! - Copyright ORBIFLY Décembre 2007 - Disclaimer

ORBIFLY MET'MAP TEAM :

Programmation & Développement : Alexandra Zaïnal
Conception & Développement : Baudouin d'Aumeries
Co-Programmation & Développement : Marc-Olivier Méhu
Soutien technique & logistique : Manuel Goepfert

Contact : metmap@orbifly.com




SOURCES & CREDITS :

   NOAA